createdAt,value
2023-02-06T00:01:24.412Z,91.88
2023-02-06T00:03:51.477Z,93.03
2023-02-06T00:06:18.560Z,92.38
2023-02-06T00:08:45.514Z,92.60
2023-02-06T00:11:16.736Z,93.50
2023-02-06T00:13:45.465Z,93.55
2023-02-06T00:16:32.518Z,93.63
2023-02-06T00:19:00.685Z,93.97
2023-02-06T00:21:28.697Z,94.49
2023-02-06T00:24:00.395Z,94.59
2023-02-06T00:26:28.442Z,93.97
2023-02-06T00:28:55.393Z,94.70
2023-02-06T00:31:22.350Z,94.52
2023-02-06T00:33:49.735Z,94.96
2023-02-06T00:36:17.103Z,94.17
2023-02-06T00:38:44.225Z,94.23
2023-02-06T00:41:11.131Z,94.27
2023-02-06T00:43:38.033Z,94.22
2023-02-06T00:46:05.200Z,95.21
2023-02-06T00:48:32.326Z,94.73
2023-02-06T00:50:59.214Z,94.66
2023-02-06T00:53:26.169Z,94.80
2023-02-06T00:55:53.116Z,95.23
2023-02-06T00:58:21.884Z,94.60
2023-02-06T01:00:48.830Z,94.58
2023-02-06T01:03:15.781Z,94.53
2023-02-06T01:05:42.691Z,93.94
2023-02-06T01:08:10.987Z,93.78
2023-02-06T01:10:44.308Z,93.90
2023-02-06T01:13:12.201Z,94.41
2023-02-06T01:15:41.286Z,94.25
2023-02-06T01:18:08.432Z,94.14
2023-02-06T01:20:35.729Z,94.57
2023-02-06T01:23:04.100Z,94.46
2023-02-06T01:25:31.568Z,93.89
2023-02-06T01:27:58.921Z,94.17
2023-02-06T01:30:25.822Z,94.02
2023-02-06T01:32:52.813Z,94.16
2023-02-06T01:35:19.750Z,94.40
2023-02-06T01:37:46.722Z,93.82
2023-02-06T01:40:16.536Z,93.40
2023-02-06T01:42:43.824Z,92.33
2023-02-06T01:45:41.226Z,92.94
2023-02-06T01:48:49.920Z,91.56
2023-02-06T01:51:24.738Z,92.16
2023-02-06T01:53:55.482Z,91.99
2023-02-06T01:56:24.129Z,92.19
2023-02-06T01:58:58.851Z,92.63
2023-02-06T02:01:25.911Z,92.09
2023-02-06T02:04:01.058Z,91.42
2023-02-06T02:06:28.647Z,92.33
2023-02-06T02:08:58.407Z,92.33
2023-02-06T02:11:37.289Z,92.23
2023-02-06T02:14:10.048Z,91.92
2023-02-06T02:17:37.482Z,92.17
2023-02-06T02:20:59.740Z,92.46
2023-02-06T02:24:04.639Z,92.16
2023-02-06T02:26:58.690Z,91.73
2023-02-06T02:29:44.448Z,90.91
2023-02-06T02:32:46.889Z,91.64
2023-02-06T02:35:28.845Z,91.97
2023-02-06T02:38:11.398Z,92.43
2023-02-06T02:40:56.975Z,92.45
2023-02-06T02:43:39.259Z,91.90
2023-02-06T02:46:11.661Z,92.51
2023-02-06T02:48:44.123Z,91.63
2023-02-06T02:51:12.222Z,91.00
2023-02-06T02:53:39.453Z,91.11
2023-02-06T02:56:20.002Z,91.68
2023-02-06T02:59:11.649Z,92.22
2023-02-06T03:01:53.294Z,92.69
2023-02-06T03:04:27.738Z,91.45
2023-02-06T03:07:24.610Z,91.22
2023-02-06T03:10:22.905Z,92.11
2023-02-06T03:13:10.042Z,92.40
2023-02-06T03:16:17.554Z,92.49
2023-02-06T03:19:09.361Z,92.73
2023-02-06T03:21:38.696Z,93.20
2023-02-06T03:24:13.807Z,93.10
2023-02-06T03:26:43.385Z,93.40
2023-02-06T03:29:15.565Z,93.77
2023-02-06T03:31:53.661Z,94.15
2023-02-06T03:34:43.617Z,93.31
2023-02-06T03:37:11.300Z,92.99
2023-02-06T03:39:39.108Z,93.00
2023-02-06T03:42:08.386Z,92.29
2023-02-06T03:44:39.670Z,92.44
2023-02-06T03:47:10.472Z,92.62
2023-02-06T03:49:41.323Z,92.08
2023-02-06T03:52:14.937Z,91.96
2023-02-06T03:54:50.278Z,92.35
2023-02-06T03:57:19.412Z,91.93
2023-02-06T03:59:47.318Z,91.74
2023-02-06T04:02:16.163Z,91.99
2023-02-06T04:04:45.453Z,91.67
2023-02-06T04:07:22.057Z,91.40
2023-02-06T04:09:49.255Z,91.05
2023-02-06T04:12:16.352Z,91.62
2023-02-06T04:14:43.793Z,91.64
2023-02-06T04:17:12.062Z,91.44
2023-02-06T04:19:39.959Z,91.67
2023-02-06T04:22:07.836Z,92.12
2023-02-06T04:24:34.936Z,91.24
2023-02-06T04:27:01.766Z,91.47
2023-02-06T04:29:28.793Z,92.29
2023-02-06T04:32:01.975Z,91.81
2023-02-06T04:34:29.943Z,92.63
2023-02-06T04:36:57.674Z,92.40
2023-02-06T04:39:24.911Z,92.81
2023-02-06T04:41:52.176Z,92.82
2023-02-06T04:44:19.318Z,92.19
2023-02-06T04:46:46.539Z,92.52
2023-02-06T04:49:14.793Z,91.82
2023-02-06T04:51:42.177Z,92.23
2023-02-06T04:54:14.685Z,92.25
2023-02-06T04:56:41.845Z,92.68
2023-02-06T04:59:08.785Z,92.19
2023-02-06T05:01:35.884Z,91.95
2023-02-06T05:04:03.113Z,92.09
2023-02-06T05:06:31.147Z,91.40
2023-02-06T05:08:59.590Z,91.81
2023-02-06T05:11:26.843Z,91.21
2023-02-06T05:13:53.834Z,91.81
2023-02-06T05:16:20.836Z,91.96
2023-02-06T05:18:47.737Z,92.24
2023-02-06T05:21:15.169Z,92.10
2023-02-06T05:23:42.126Z,91.74
2023-02-06T05:26:09.165Z,91.19
2023-02-06T05:28:36.053Z,92.11
2023-02-06T05:31:03.977Z,92.05
2023-02-06T05:33:31.146Z,91.94
2023-02-06T05:36:06.728Z,92.88
2023-02-06T05:38:34.576Z,92.08
2023-02-06T05:41:01.591Z,91.65
2023-02-06T05:43:28.527Z,91.48
2023-02-06T05:45:55.508Z,91.85
2023-02-06T05:48:22.423Z,91.14
2023-02-06T05:50:50.509Z,91.47
2023-02-06T05:53:17.959Z,91.67
2023-02-06T05:55:44.805Z,91.53
2023-02-06T05:58:12.325Z,91.33
2023-02-06T06:00:39.220Z,92.48
2023-02-06T06:03:06.146Z,92.51
2023-02-06T06:05:33.758Z,92.69
2023-02-06T06:08:01.050Z,93.00
2023-02-06T06:10:28.150Z,93.12
2023-02-06T06:12:55.188Z,92.90
2023-02-06T06:15:22.036Z,93.27
2023-02-06T06:17:48.968Z,93.62
2023-02-06T06:20:16.041Z,92.84
2023-02-06T06:22:42.949Z,92.20
2023-02-06T06:25:09.888Z,92.62
2023-02-06T06:27:36.964Z,92.65
2023-02-06T06:30:04.105Z,93.35
2023-02-06T06:32:31.147Z,93.34
2023-02-06T06:34:58.085Z,93.56
2023-02-06T06:37:25.191Z,93.64
2023-02-06T06:39:52.053Z,93.70
2023-02-06T06:42:18.988Z,94.05
2023-02-06T06:44:45.825Z,93.84
2023-02-06T06:47:12.770Z,93.89
2023-02-06T06:49:39.658Z,93.64
2023-02-06T06:52:13.381Z,94.17
2023-02-06T06:54:47.005Z,94.08
2023-02-06T06:57:13.867Z,93.85
2023-02-06T06:59:40.912Z,94.27
2023-02-06T07:02:08.445Z,94.61
2023-02-06T07:04:35.339Z,94.48
2023-02-06T07:07:02.417Z,94.50
2023-02-06T07:09:29.777Z,95.63
2023-02-06T07:11:56.624Z,95.51
2023-02-06T07:14:23.628Z,95.30
2023-02-06T07:16:50.600Z,95.02
2023-02-06T07:19:17.766Z,94.59
2023-02-06T07:21:44.749Z,93.66
2023-02-06T07:24:11.664Z,94.47
2023-02-06T07:26:38.505Z,94.36
2023-02-06T07:29:05.417Z,94.29
2023-02-06T07:31:32.332Z,93.30
2023-02-06T07:34:00.145Z,93.69
2023-02-06T07:36:27.079Z,93.25
2023-02-06T07:38:54.076Z,93.07
2023-02-06T07:41:20.949Z,93.70
2023-02-06T07:43:48.094Z,93.41
2023-02-06T07:46:15.431Z,94.10
2023-02-06T07:48:42.495Z,94.32
2023-02-06T07:51:09.793Z,94.37
2023-02-06T07:53:38.046Z,93.82
2023-02-06T07:56:14.804Z,93.66
2023-02-06T07:58:42.054Z,93.76
2023-02-06T08:01:09.874Z,93.20
2023-02-06T08:03:37.552Z,93.03
2023-02-06T08:06:12.796Z,93.36
2023-02-06T08:08:39.761Z,93.35
2023-02-06T08:11:08.959Z,93.03
2023-02-06T08:13:36.226Z,93.22
2023-02-06T08:16:08.963Z,92.39
2023-02-06T08:18:37.184Z,92.32
2023-02-06T08:21:16.278Z,92.71
2023-02-06T08:23:44.118Z,92.24
2023-02-06T08:26:14.378Z,92.23
2023-02-06T08:28:42.537Z,91.29
2023-02-06T08:31:17.666Z,90.27
2023-02-06T08:33:45.488Z,89.87
2023-02-06T08:36:13.609Z,90.17
2023-02-06T08:38:41.511Z,90.15
2023-02-06T08:41:18.614Z,89.97
2023-02-06T08:43:47.412Z,89.93
2023-02-06T08:46:16.070Z,88.70
2023-02-06T08:48:43.639Z,88.54
2023-02-06T08:51:11.514Z,89.64
2023-02-06T08:53:38.675Z,89.77
2023-02-06T08:56:10.262Z,90.53
2023-02-06T08:58:38.331Z,90.33
2023-02-06T09:01:13.586Z,89.56
2023-02-06T09:03:41.857Z,88.25
2023-02-06T09:06:10.660Z,88.41
2023-02-06T09:08:39.803Z,88.78
2023-02-06T09:11:13.544Z,88.54
2023-02-06T09:13:40.628Z,87.78
2023-02-06T09:16:07.925Z,87.49
2023-02-06T09:18:35.707Z,87.98
2023-02-06T09:21:16.709Z,88.26
2023-02-06T09:23:48.355Z,87.93
2023-02-06T09:26:23.205Z,88.38
2023-02-06T09:28:58.728Z,87.10
2023-02-06T09:31:30.634Z,88.00
2023-02-06T09:34:00.355Z,87.95
2023-02-06T09:36:30.175Z,87.06
2023-02-06T09:38:58.190Z,87.72
2023-02-06T09:41:51.035Z,86.44
2023-02-06T09:44:35.892Z,86.99
2023-02-06T09:47:21.073Z,87.51
2023-02-06T09:49:58.777Z,86.90
2023-02-06T09:52:40.856Z,87.60
2023-02-06T09:55:30.671Z,86.87
2023-02-06T09:58:22.324Z,86.45
2023-02-06T10:01:12.211Z,87.50
2023-02-06T10:03:59.892Z,86.61
2023-02-06T10:06:48.206Z,87.23
2023-02-06T10:09:27.056Z,86.78
2023-02-06T10:12:07.076Z,87.19
2023-02-06T10:14:49.033Z,87.21
2023-02-06T10:17:25.265Z,87.22
2023-02-06T10:20:31.003Z,87.08
2023-02-06T10:23:19.049Z,86.48
2023-02-06T10:25:54.425Z,86.13
2023-02-06T10:28:27.401Z,87.34
2023-02-06T10:31:21.791Z,86.80
2023-02-06T10:34:10.420Z,85.45
2023-02-06T10:37:20.108Z,84.88
2023-02-06T10:40:18.002Z,84.96
2023-02-06T10:43:49.259Z,84.40
2023-02-06T10:46:34.340Z,84.95
2023-02-06T10:49:30.418Z,84.97
2023-02-06T10:52:03.658Z,85.43
2023-02-06T10:54:38.987Z,85.63
2023-02-06T10:57:16.737Z,84.63
2023-02-06T10:59:48.397Z,84.50
2023-02-06T11:02:31.970Z,84.12
2023-02-06T11:05:16.350Z,84.75
2023-02-06T11:07:53.783Z,84.58
2023-02-06T11:10:26.747Z,83.38
2023-02-06T11:13:10.963Z,84.14
2023-02-06T11:15:54.770Z,85.72
2023-02-06T11:18:31.372Z,83.69
2023-02-06T11:20:59.694Z,84.65
2023-02-06T11:23:30.326Z,84.10
2023-02-06T11:26:15.467Z,84.70
2023-02-06T11:28:59.949Z,85.25
2023-02-06T11:31:59.983Z,85.13
2023-02-06T11:34:50.574Z,84.42
2023-02-06T11:37:33.815Z,84.83
2023-02-06T11:40:24.671Z,85.52
2023-02-06T11:43:32.256Z,85.68
2023-02-06T11:46:11.453Z,84.67
2023-02-06T11:48:49.192Z,84.68
2023-02-06T11:51:16.885Z,85.01
2023-02-06T11:54:00.124Z,84.37
2023-02-06T11:56:30.530Z,84.24
2023-02-06T11:59:19.628Z,83.46
2023-02-06T12:01:48.285Z,84.39
2023-02-06T12:04:31.844Z,83.79
2023-02-06T12:07:11.786Z,82.87
2023-02-06T12:09:38.983Z,83.67
2023-02-06T12:12:27.643Z,82.83
2023-02-06T12:15:44.885Z,82.42
2023-02-06T12:18:22.565Z,83.32
2023-02-06T12:21:34.524Z,83.48
2023-02-06T12:24:25.685Z,84.11
2023-02-06T12:26:55.257Z,80.94
2023-02-06T12:29:34.708Z,82.77
2023-02-06T12:32:18.458Z,82.62
2023-02-06T12:35:01.239Z,83.53
2023-02-06T12:37:44.016Z,83.79
2023-02-06T12:40:36.201Z,84.26
2023-02-06T12:43:15.941Z,83.51
2023-02-06T12:46:23.448Z,83.54
2023-02-06T12:49:38.542Z,82.63
2023-02-06T12:52:41.263Z,83.03
2023-02-06T12:55:17.854Z,83.62
2023-02-06T12:57:45.148Z,84.06
2023-02-06T13:00:32.680Z,83.83
2023-02-06T13:03:16.302Z,84.38
2023-02-06T13:05:49.235Z,84.99
2023-02-06T13:08:38.970Z,84.42
2023-02-06T13:11:21.074Z,83.82
2023-02-06T13:13:52.683Z,83.23
2023-02-06T13:16:19.688Z,83.89
2023-02-06T13:18:50.582Z,84.46
2023-02-06T13:21:29.914Z,84.67
2023-02-06T13:24:02.557Z,85.21
2023-02-06T13:26:51.326Z,85.27
2023-02-06T13:29:29.758Z,85.14
2023-02-06T13:32:12.159Z,84.18
2023-02-06T13:34:43.416Z,84.81
2023-02-06T13:37:43.701Z,83.05
2023-02-06T13:40:32.153Z,83.52
2023-02-06T13:43:11.044Z,82.57
2023-02-06T13:46:02.253Z,82.27
2023-02-06T13:49:01.574Z,82.63
2023-02-06T13:51:51.283Z,81.73
2023-02-06T13:54:52.763Z,80.18
2023-02-06T13:57:41.471Z,78.94
2023-02-06T14:00:25.553Z,79.45
2023-02-06T14:03:13.390Z,80.68
2023-02-06T14:05:56.936Z,80.58
2023-02-06T14:08:30.656Z,80.91
2023-02-06T14:11:58.164Z,82.02
2023-02-06T14:14:59.717Z,83.17
2023-02-06T14:17:39.739Z,82.09
2023-02-06T14:20:32.881Z,82.09
2023-02-06T14:23:37.471Z,80.50
2023-02-06T14:26:16.324Z,81.47
2023-02-06T14:28:57.532Z,82.11
2023-02-06T14:31:58.381Z,81.83
2023-02-06T14:34:48.539Z,81.95
2023-02-06T14:37:55.293Z,81.36
2023-02-06T14:40:34.455Z,82.01
2023-02-06T14:43:08.119Z,82.93
2023-02-06T14:45:42.301Z,81.53
2023-02-06T14:48:40.969Z,81.10
2023-02-06T14:51:20.772Z,81.98
2023-02-06T14:54:01.698Z,79.83
2023-02-06T14:56:38.517Z,81.35
2023-02-06T14:59:17.304Z,81.04
2023-02-06T15:01:50.036Z,80.26
2023-02-06T15:04:26.250Z,80.87
2023-02-06T15:07:02.525Z,81.79
2023-02-06T15:09:38.939Z,81.94
2023-02-06T15:12:24.859Z,82.08
2023-02-06T15:14:56.473Z,83.26
2023-02-06T15:17:26.865Z,81.32
2023-02-06T15:19:54.141Z,81.95
2023-02-06T15:22:30.677Z,80.59
2023-02-06T15:25:53.480Z,81.94
2023-02-06T15:28:23.816Z,81.15
2023-02-06T15:30:56.861Z,80.76
2023-02-06T15:33:31.944Z,80.62
2023-02-06T15:36:02.603Z,81.60
2023-02-06T15:38:33.061Z,82.08
2023-02-06T15:41:08.358Z,80.52
2023-02-06T15:43:36.193Z,81.70
2023-02-06T15:46:05.820Z,81.60
2023-02-06T15:48:38.882Z,82.38
2023-02-06T15:51:11.239Z,82.07
2023-02-06T15:53:41.136Z,83.61
2023-02-06T15:56:28.337Z,82.16
2023-02-06T15:59:02.623Z,81.20
2023-02-06T16:01:35.506Z,81.42
2023-02-06T16:04:08.956Z,82.10
2023-02-06T16:06:36.183Z,81.23
2023-02-06T16:09:07.256Z,80.13
2023-02-06T16:11:51.187Z,82.43
2023-02-06T16:14:38.784Z,82.88
2023-02-06T16:17:30.889Z,83.60
2023-02-06T16:20:33.610Z,83.75
2023-02-06T16:23:30.516Z,82.87
2023-02-06T16:26:27.345Z,83.19
2023-02-06T16:28:56.908Z,84.94
2023-02-06T16:31:26.836Z,85.86
2023-02-06T16:33:55.913Z,86.57
2023-02-06T16:36:24.475Z,86.50
2023-02-06T16:39:03.192Z,86.11
2023-02-06T16:41:37.580Z,86.53
2023-02-06T16:44:12.781Z,85.70
2023-02-06T16:46:39.739Z,86.84
2023-02-06T16:49:12.887Z,86.85
2023-02-06T16:51:43.238Z,87.16
2023-02-06T16:54:27.828Z,87.53
2023-02-06T16:56:57.542Z,87.83
2023-02-06T16:59:24.878Z,87.79
2023-02-06T17:01:51.788Z,87.69
2023-02-06T17:04:18.895Z,88.11
2023-02-06T17:06:45.818Z,87.35
2023-02-06T17:09:17.671Z,86.41
2023-02-06T17:11:45.050Z,86.36
2023-02-06T17:14:11.934Z,86.17
2023-02-06T17:16:38.965Z,86.49
2023-02-06T17:19:05.885Z,87.44
2023-02-06T17:21:33.266Z,86.93
2023-02-06T17:24:00.326Z,87.46
2023-02-06T17:26:27.892Z,87.73
2023-02-06T17:28:54.901Z,88.53
2023-02-06T17:31:22.465Z,87.59
2023-02-06T17:33:49.894Z,88.07
2023-02-06T17:36:26.793Z,88.75
2023-02-06T17:38:53.748Z,87.83
2023-02-06T17:41:20.585Z,88.73
2023-02-06T17:43:47.436Z,89.22
2023-02-06T17:46:14.406Z,89.46
2023-02-06T17:48:43.406Z,89.04
2023-02-06T17:51:11.811Z,88.95
2023-02-06T17:53:38.790Z,89.10
2023-02-06T17:56:12.926Z,89.19
2023-02-06T17:58:44.097Z,88.90
2023-02-06T18:01:19.348Z,88.82
2023-02-06T18:03:48.080Z,88.85
2023-02-06T18:06:15.325Z,89.15
2023-02-06T18:08:43.257Z,89.95
2023-02-06T18:11:21.349Z,89.55
2023-02-06T18:13:49.632Z,89.94
2023-02-06T18:16:23.402Z,90.24
2023-02-06T18:18:50.887Z,90.31
2023-02-06T18:21:19.699Z,90.55
2023-02-06T18:23:48.415Z,90.15
2023-02-06T18:26:18.377Z,90.03
2023-02-06T18:28:45.591Z,89.38
2023-02-06T18:31:28.909Z,89.19
2023-02-06T18:33:57.281Z,89.18
2023-02-06T18:36:24.666Z,89.90
2023-02-06T18:38:53.535Z,90.28
2023-02-06T18:41:39.007Z,90.42
2023-02-06T18:44:09.283Z,90.27
2023-02-06T18:46:36.808Z,91.27
2023-02-06T18:49:04.601Z,91.33
2023-02-06T18:51:32.029Z,91.23
2023-02-06T18:53:59.771Z,90.87
2023-02-06T18:56:27.307Z,90.97
2023-02-06T18:58:54.248Z,91.09
2023-02-06T19:01:24.203Z,91.32
2023-02-06T19:03:52.817Z,90.99
2023-02-06T19:06:35.228Z,90.96
2023-02-06T19:09:08.762Z,91.29
2023-02-06T19:11:36.653Z,91.39
2023-02-06T19:14:05.474Z,91.80
2023-02-06T19:16:33.016Z,91.84
2023-02-06T19:19:00.435Z,91.83
2023-02-06T19:21:28.215Z,92.10
2023-02-06T19:23:58.600Z,91.84
2023-02-06T19:26:26.595Z,92.12
2023-02-06T19:28:54.022Z,92.18
2023-02-06T19:31:24.337Z,92.06
2023-02-06T19:33:55.811Z,92.15
2023-02-06T19:36:25.762Z,92.06
2023-02-06T19:38:58.860Z,92.08
2023-02-06T19:41:29.541Z,92.47
2023-02-06T19:43:58.170Z,92.36
2023-02-06T19:46:27.146Z,92.05
2023-02-06T19:48:55.790Z,92.07
2023-02-06T19:51:33.062Z,91.81
2023-02-06T19:54:00.882Z,91.72
2023-02-06T19:56:39.206Z,91.85
2023-02-06T19:59:18.163Z,91.69
2023-02-06T20:01:50.566Z,91.87
2023-02-06T20:04:19.551Z,91.85
2023-02-06T20:06:47.047Z,91.88
2023-02-06T20:09:16.170Z,91.55
2023-02-06T20:11:43.740Z,91.98
2023-02-06T20:14:12.371Z,92.02
2023-02-06T20:16:41.890Z,92.46
2023-02-06T20:19:16.516Z,92.30
2023-02-06T20:21:48.216Z,92.27
2023-02-06T20:24:21.801Z,92.23
2023-02-06T20:26:55.743Z,92.13
2023-02-06T20:29:28.926Z,92.07
2023-02-06T20:31:57.082Z,92.23
2023-02-06T20:34:26.744Z,92.13
2023-02-06T20:36:55.566Z,92.36
2023-02-06T20:39:22.662Z,91.82
2023-02-06T20:41:50.332Z,92.08
2023-02-06T20:44:19.419Z,92.35
2023-02-06T20:46:46.770Z,91.96
2023-02-06T20:49:18.686Z,92.31
2023-02-06T20:51:45.684Z,92.11
2023-02-06T20:54:12.645Z,92.56
2023-02-06T20:56:40.947Z,92.54
2023-02-06T20:59:11.763Z,92.28
2023-02-06T21:01:40.010Z,92.07
2023-02-06T21:04:10.157Z,92.14
2023-02-06T21:06:38.979Z,92.19
2023-02-06T21:09:07.686Z,92.37
2023-02-06T21:11:39.169Z,92.10
2023-02-06T21:14:06.732Z,92.36
2023-02-06T21:16:35.388Z,92.17
2023-02-06T21:19:03.375Z,92.48
2023-02-06T21:21:30.346Z,92.52
2023-02-06T21:23:57.354Z,92.15
2023-02-06T21:26:25.786Z,92.10
2023-02-06T21:28:53.891Z,92.17
2023-02-06T21:31:35.390Z,92.27
2023-02-06T21:34:23.277Z,92.27
2023-02-06T21:36:51.098Z,92.07
2023-02-06T21:39:22.282Z,91.93
2023-02-06T21:41:51.908Z,92.30
2023-02-06T21:44:18.826Z,92.67
2023-02-06T21:46:45.973Z,92.18
2023-02-06T21:49:13.319Z,92.39
2023-02-06T21:51:40.319Z,92.08
2023-02-06T21:54:08.256Z,92.49
2023-02-06T21:56:38.152Z,92.18
2023-02-06T21:59:06.665Z,92.45
2023-02-06T22:01:34.816Z,92.17
2023-02-06T22:04:03.448Z,92.27
2023-02-06T22:06:31.061Z,92.32
2023-02-06T22:09:05.162Z,92.53
2023-02-06T22:11:32.239Z,92.20
2023-02-06T22:14:14.271Z,92.10
2023-02-06T22:16:41.973Z,92.32
2023-02-06T22:19:10.622Z,92.53
2023-02-06T22:21:38.052Z,92.29
2023-02-06T22:24:07.522Z,92.39
2023-02-06T22:26:38.600Z,92.09
2023-02-06T22:29:08.435Z,92.33
2023-02-06T22:31:35.838Z,92.30
2023-02-06T22:34:03.156Z,92.49
2023-02-06T22:36:32.682Z,92.78
2023-02-06T22:39:03.825Z,92.28
2023-02-06T22:41:30.970Z,92.32
2023-02-06T22:43:58.536Z,92.55
2023-02-06T22:46:38.486Z,92.85
2023-02-06T22:49:07.865Z,92.78
2023-02-06T22:51:36.425Z,92.38
2023-02-06T22:54:04.244Z,92.39
2023-02-06T22:56:37.029Z,92.14
2023-02-06T22:59:20.735Z,92.84
2023-02-06T23:01:55.568Z,92.46
2023-02-06T23:04:29.316Z,92.04
2023-02-06T23:06:57.066Z,91.71
2023-02-06T23:09:30.446Z,91.59
2023-02-06T23:11:58.455Z,91.42
2023-02-06T23:14:26.702Z,91.64
2023-02-06T23:16:53.944Z,91.42
2023-02-06T23:19:21.151Z,91.22
2023-02-06T23:21:51.165Z,91.47
2023-02-06T23:24:18.785Z,91.43
2023-02-06T23:26:49.434Z,91.95
2023-02-06T23:29:18.694Z,91.92
2023-02-06T23:31:47.135Z,90.89
2023-02-06T23:34:15.347Z,91.48
2023-02-06T23:36:42.357Z,90.43
2023-02-06T23:39:09.609Z,90.54
2023-02-06T23:41:36.515Z,90.76
2023-02-06T23:44:06.944Z,91.26
2023-02-06T23:46:36.542Z,91.21
2023-02-06T23:49:05.185Z,91.70
2023-02-06T23:51:32.950Z,91.28
2023-02-06T23:54:00.157Z,90.95
2023-02-06T23:56:30.226Z,91.20
2023-02-06T23:58:59.033Z,90.19
